Saint Barthelemy, St. Barthelemy

7:59 AM AST on July 27, 2016 (GMT -0400)
D209 | | Change Station

Elev 0 ft 17.90 °N, 62.85 °W | Updated 4 minutes ago

Scattered Clouds
Scattered Clouds
83.1 °F
Feels Like 92 °F
N
1.9
Wind Variable Wind from North
Gusts 5.6 mph

Today
High -- | Low -- °F
--% Chance of Precip.
Yesterday
High -- | Low -- °F
Precip. -- in
Pressure 30.01 in
Visibility 6.2 miles
Clouds Scattered Clouds 1800 ft
Heat Index 92 °F
Dew Point 77 °F
Humidity 82%
Rainfall 0.06 in
Snow Depth Not available.
5:48 AM 6:47 PM
Last Quarter, 44% visible
METAR TNCM 271100Z 11008KT 9999 SCT018 29/25 Q1016 A3002 NOSIG RMK -HZ ALQDS
Pressure 30.01 in
Visibility 6.2 miles
Clouds Scattered Clouds 1800 ft
Heat Index 92 °F
Dew Point 77 °F
Humidity 82%
Rainfall 0.06 in
Snow Depth Not available.
5:48 AM 6:47 PM
Last Quarter, 44% visible
METAR TNCM 271100Z 11008KT 9999 SCT018 29/25 Q1016 A3002 NOSIG RMK -HZ ALQDS

10-Day Weather Forecast

No radar image for this location.
×

Almanac

Astronomy

Jul. 27, 2016 Rise Set
Actual Time
Civil Twilight
Nautical Twilight
Astronomical Twilight
Moon
Length of Visible Light
Length of Day
Tomorrow will be .
, % of the Moon is Illuminated

Today's Extremes

Country Highs Country Lows

Community

WunderPhotos

Upload Photos

1,927,828 photos uploaded!

WunderBlog® & News

Nearby

Air Quality

  Air Quality AQ Index Pollutant
Not available.

Snow Depth

Station Depth Elevation

Earthquake Activity

City Distance Mag. Time & Date
Minimum magnitude displayed is 2.5.

Coastal Water Temperatures

Place Temperature

Stations

Nearby Weather Stations

Station Location Temp. Windchill Dew Point Humidity Wind Precip. Elev Updated Type